sensor_id;sensor_type;location;lat;lon;timestamp;P1;durP1;ratioP1;P2;durP2;ratioP2
75616;SDS011;64200;55.426;37.758;2023-07-13T00:04:20;1.38;;;0.93;;
75616;SDS011;64200;55.426;37.758;2023-07-13T00:09:23;2.08;;;1.10;;
75616;SDS011;64200;55.426;37.758;2023-07-13T00:14:25;1.30;;;1.00;;
75616;SDS011;64200;55.426;37.758;2023-07-13T00:19:27;2.25;;;1.20;;
75616;SDS011;64200;55.426;37.758;2023-07-13T00:24:27;2.67;;;1.17;;
75616;SDS011;64200;55.426;37.758;2023-07-13T00:29:29;2.45;;;1.27;;
75616;SDS011;64200;55.426;37.758;2023-07-13T00:34:29;1.90;;;1.23;;
75616;SDS011;64200;55.426;37.758;2023-07-13T00:39:30;4.22;;;1.67;;
75616;SDS011;64200;55.426;37.758;2023-07-13T00:44:31;1.80;;;1.20;;
75616;SDS011;64200;55.426;37.758;2023-07-13T00:49:32;2.15;;;1.40;;
75616;SDS011;64200;55.426;37.758;2023-07-13T00:54:39;2.20;;;1.20;;
75616;SDS011;64200;55.426;37.758;2023-07-13T00:59:45;2.20;;;1.23;;
75616;SDS011;64200;55.426;37.758;2023-07-13T01:04:51;2.67;;;1.45;;
75616;SDS011;64200;55.426;37.758;2023-07-13T01:09:51;2.22;;;1.02;;
75616;SDS011;64200;55.426;37.758;2023-07-13T01:14:58;2.27;;;1.20;;
75616;SDS011;64200;55.426;37.758;2023-07-13T01:20:00;1.30;;;0.90;;
75616;SDS011;64200;55.426;37.758;2023-07-13T01:25:02;1.98;;;1.30;;
75616;SDS011;64200;55.426;37.758;2023-07-13T01:30:03;1.73;;;1.40;;
75616;SDS011;64200;55.426;37.758;2023-07-13T01:35:04;4.03;;;1.17;;
75616;SDS011;64200;55.426;37.758;2023-07-13T01:40:05;1.50;;;1.20;;
75616;SDS011;64200;55.426;37.758;2023-07-13T01:45:06;2.00;;;1.20;;
75616;SDS011;64200;55.426;37.758;2023-07-13T01:50:07;1.67;;;1.25;;
75616;SDS011;64200;55.426;37.758;2023-07-13T01:55:08;4.03;;;1.65;;
75616;SDS011;64200;55.426;37.758;2023-07-13T02:00:09;3.58;;;1.83;;
75616;SDS011;64200;55.426;37.758;2023-07-13T02:05:11;1.92;;;1.40;;
75616;SDS011;64200;55.426;37.758;2023-07-13T02:10:12;2.47;;;1.83;;
75616;SDS011;64200;55.426;37.758;2023-07-13T02:15:12;1.85;;;1.13;;
75616;SDS011;64200;55.426;37.758;2023-07-13T02:20:13;2.17;;;1.30;;
75616;SDS011;64200;55.426;37.758;2023-07-13T02:25:13;2.10;;;1.60;;
75616;SDS011;64200;55.426;37.758;2023-07-13T02:30:14;2.78;;;1.20;;
75616;SDS011;64200;55.426;37.758;2023-07-13T02:35:14;2.40;;;1.43;;
75616;SDS011;64200;55.426;37.758;2023-07-13T02:40:15;3.37;;;1.23;;
75616;SDS011;64200;55.426;37.758;2023-07-13T02:45:15;1.60;;;1.30;;
75616;SDS011;64200;55.426;37.758;2023-07-13T02:50:16;4.75;;;1.67;;
75616;SDS011;64200;55.426;37.758;2023-07-13T02:55:17;2.13;;;1.25;;
75616;SDS011;64200;55.426;37.758;2023-07-13T03:00:17;3.27;;;1.40;;
75616;SDS011;64200;55.426;37.758;2023-07-13T03:05:18;2.05;;;1.30;;
75616;SDS011;64200;55.426;37.758;2023-07-13T03:10:18;2.03;;;1.20;;
75616;SDS011;64200;55.426;37.758;2023-07-13T03:15:19;2.72;;;1.40;;
75616;SDS011;64200;55.426;37.758;2023-07-13T03:20:20;3.37;;;1.57;;
75616;SDS011;64200;55.426;37.758;2023-07-13T03:25:20;2.92;;;1.40;;
75616;SDS011;64200;55.426;37.758;2023-07-13T03:30:21;3.90;;;1.13;;
75616;SDS011;64200;55.426;37.758;2023-07-13T03:35:21;1.80;;;1.30;;
75616;SDS011;64200;55.426;37.758;2023-07-13T03:40:22;3.07;;;1.57;;
75616;SDS011;64200;55.426;37.758;2023-07-13T03:45:23;1.92;;;1.30;;
75616;SDS011;64200;55.426;37.758;2023-07-13T03:50:24;3.08;;;1.33;;
75616;SDS011;64200;55.426;37.758;2023-07-13T03:55:25;2.40;;;1.37;;
75616;SDS011;64200;55.426;37.758;2023-07-13T04:00:26;2.78;;;1.33;;
75616;SDS011;64200;55.426;37.758;2023-07-13T04:05:27;2.70;;;1.57;;
75616;SDS011;64200;55.426;37.758;2023-07-13T04:10:30;3.30;;;1.35;;
75616;SDS011;64200;55.426;37.758;2023-07-13T04:15:31;2.70;;;1.20;;
75616;SDS011;64200;55.426;37.758;2023-07-13T04:20:32;2.50;;;1.33;;
75616;SDS011;64200;55.426;37.758;2023-07-13T04:25:32;4.20;;;1.70;;
75616;SDS011;64200;55.426;37.758;2023-07-13T04:30:33;2.67;;;1.27;;
75616;SDS011;64200;55.426;37.758;2023-07-13T04:35:34;1.65;;;1.50;;
75616;SDS011;64200;55.426;37.758;2023-07-13T04:40:35;3.00;;;1.40;;
75616;SDS011;64200;55.426;37.758;2023-07-13T04:45:35;2.83;;;1.47;;
75616;SDS011;64200;55.426;37.758;2023-07-13T04:50:36;1.92;;;1.30;;
75616;SDS011;64200;55.426;37.758;2023-07-13T04:55:37;3.72;;;1.55;;
75616;SDS011;64200;55.426;37.758;2023-07-13T05:00:38;3.97;;;1.55;;
75616;SDS011;64200;55.426;37.758;2023-07-13T05:05:39;5.97;;;1.65;;
75616;SDS011;64200;55.426;37.758;2023-07-13T05:10:40;2.05;;;1.58;;
75616;SDS011;64200;55.426;37.758;2023-07-13T05:15:40;2.80;;;1.60;;
75616;SDS011;64200;55.426;37.758;2023-07-13T05:20:41;2.80;;;1.50;;
75616;SDS011;64200;55.426;37.758;2023-07-13T05:25:41;2.20;;;1.30;;
75616;SDS011;64200;55.426;37.758;2023-07-13T05:30:45;2.30;;;1.53;;
75616;SDS011;64200;55.426;37.758;2023-07-13T05:35:47;4.15;;;1.13;;
75616;SDS011;64200;55.426;37.758;2023-07-13T05:40:48;4.13;;;1.58;;
75616;SDS011;64200;55.426;37.758;2023-07-13T05:45:48;2.08;;;1.50;;
75616;SDS011;64200;55.426;37.758;2023-07-13T05:50:51;2.42;;;1.83;;
75616;SDS011;64200;55.426;37.758;2023-07-13T05:55:52;2.78;;;1.60;;
75616;SDS011;64200;55.426;37.758;2023-07-13T06:01:04;3.80;;;1.63;;
75616;SDS011;64200;55.426;37.758;2023-07-13T06:06:07;2.72;;;1.67;;
75616;SDS011;64200;55.426;37.758;2023-07-13T06:11:12;1.90;;;1.30;;
75616;SDS011;64200;55.426;37.758;2023-07-13T06:16:15;4.32;;;1.77;;
75616;SDS011;64200;55.426;37.758;2023-07-13T06:21:17;2.53;;;1.52;;
75616;SDS011;64200;55.426;37.758;2023-07-13T06:26:20;4.03;;;1.50;;
75616;SDS011;64200;55.426;37.758;2023-07-13T06:31:21;5.82;;;1.40;;
75616;SDS011;64200;55.426;37.758;2023-07-13T06:36:21;3.10;;;1.50;;
75616;SDS011;64200;55.426;37.758;2023-07-13T06:41:22;2.08;;;1.27;;
75616;SDS011;64200;55.426;37.758;2023-07-13T06:46:23;3.13;;;1.60;;
75616;SDS011;64200;55.426;37.758;2023-07-13T06:51:23;2.75;;;1.55;;
75616;SDS011;64200;55.426;37.758;2023-07-13T06:56:24;2.90;;;1.50;;
75616;SDS011;64200;55.426;37.758;2023-07-13T07:01:24;2.97;;;1.27;;
75616;SDS011;64200;55.426;37.758;2023-07-13T07:06:25;2.40;;;1.43;;
75616;SDS011;64200;55.426;37.758;2023-07-13T07:11:25;5.57;;;1.90;;
75616;SDS011;64200;55.426;37.758;2023-07-13T07:16:26;3.63;;;1.25;;
75616;SDS011;64200;55.426;37.758;2023-07-13T07:21:27;5.43;;;1.30;;
75616;SDS011;64200;55.426;37.758;2023-07-13T07:26:27;3.53;;;1.38;;
75616;SDS011;64200;55.426;37.758;2023-07-13T07:31:28;4.97;;;1.50;;
75616;SDS011;64200;55.426;37.758;2023-07-13T07:36:28;1.83;;;1.50;;
75616;SDS011;64200;55.426;37.758;2023-07-13T07:41:29;2.40;;;1.33;;
75616;SDS011;64200;55.426;37.758;2023-07-13T07:46:29;2.57;;;1.23;;
75616;SDS011;64200;55.426;37.758;2023-07-13T07:51:30;2.85;;;1.80;;
75616;SDS011;64200;55.426;37.758;2023-07-13T07:56:31;4.80;;;1.60;;
75616;SDS011;64200;55.426;37.758;2023-07-13T08:01:32;3.38;;;1.65;;
75616;SDS011;64200;55.426;37.758;2023-07-13T08:06:33;2.10;;;1.30;;
75616;SDS011;64200;55.426;37.758;2023-07-13T08:11:34;1.60;;;1.23;;
75616;SDS011;64200;55.426;37.758;2023-07-13T08:16:34;2.20;;;1.25;;
75616;SDS011;64200;55.426;37.758;2023-07-13T08:21:35;2.73;;;1.50;;
75616;SDS011;64200;55.426;37.758;2023-07-13T08:26:37;1.75;;;1.27;;
75616;SDS011;64200;55.426;37.758;2023-07-13T08:31:37;2.25;;;1.52;;
75616;SDS011;64200;55.426;37.758;2023-07-13T08:36:38;2.10;;;1.40;;
75616;SDS011;64200;55.426;37.758;2023-07-13T08:41:38;1.83;;;1.55;;
75616;SDS011;64200;55.426;37.758;2023-07-13T08:46:40;1.95;;;1.50;;
75616;SDS011;64200;55.426;37.758;2023-07-13T08:56:47;2.83;;;1.50;;
75616;SDS011;64200;55.426;37.758;2023-07-13T09:07:34;3.08;;;1.73;;
75616;SDS011;64200;55.426;37.758;2023-07-13T09:23:31;4.38;;;1.85;;
75616;SDS011;64200;55.426;37.758;2023-07-13T09:28:37;4.45;;;2.08;;
75616;SDS011;64200;55.426;37.758;2023-07-13T09:33:41;3.33;;;1.80;;
75616;SDS011;64200;55.426;37.758;2023-07-13T09:38:42;2.92;;;1.75;;
75616;SDS011;64200;55.426;37.758;2023-07-13T09:49:14;3.15;;;1.65;;
75616;SDS011;64200;55.426;37.758;2023-07-13T09:54:17;2.88;;;1.83;;
75616;SDS011;64200;55.426;37.758;2023-07-13T09:59:20;2.67;;;1.60;;
75616;SDS011;64200;55.426;37.758;2023-07-13T10:04:30;4.30;;;1.98;;
75616;SDS011;64200;55.426;37.758;2023-07-13T10:09:34;3.28;;;1.90;;
75616;SDS011;64200;55.426;37.758;2023-07-13T10:14:35;3.92;;;1.77;;
75616;SDS011;64200;55.426;37.758;2023-07-13T10:19:35;3.33;;;1.92;;
75616;SDS011;64200;55.426;37.758;2023-07-13T10:24:37;3.33;;;2.47;;
75616;SDS011;64200;55.426;37.758;2023-07-13T10:29:44;5.35;;;2.22;;
75616;SDS011;64200;55.426;37.758;2023-07-13T10:34:48;2.97;;;1.90;;
75616;SDS011;64200;55.426;37.758;2023-07-13T10:39:50;4.68;;;2.33;;
75616;SDS011;64200;55.426;37.758;2023-07-13T10:44:54;5.00;;;2.60;;
75616;SDS011;64200;55.426;37.758;2023-07-13T10:49:56;3.67;;;2.10;;
75616;SDS011;64200;55.426;37.758;2023-07-13T10:54:58;7.95;;;2.10;;
75616;SDS011;64200;55.426;37.758;2023-07-13T11:10:49;4.40;;;2.30;;
75616;SDS011;64200;55.426;37.758;2023-07-13T11:15:52;3.85;;;2.08;;
75616;SDS011;64200;55.426;37.758;2023-07-13T11:20:53;5.25;;;2.10;;
75616;SDS011;64200;55.426;37.758;2023-07-13T11:31:53;6.32;;;3.30;;
75616;SDS011;64200;55.426;37.758;2023-07-13T11:36:56;3.30;;;2.50;;
75616;SDS011;64200;55.426;37.758;2023-07-13T11:42:00;4.28;;;2.00;;
75616;SDS011;64200;55.426;37.758;2023-07-13T11:47:11;3.78;;;2.28;;
75616;SDS011;64200;55.426;37.758;2023-07-13T11:52:18;3.95;;;1.80;;
75616;SDS011;64200;55.426;37.758;2023-07-13T11:57:23;3.90;;;2.00;;
75616;SDS011;64200;55.426;37.758;2023-07-13T12:02:36;3.15;;;1.90;;
75616;SDS011;64200;55.426;37.758;2023-07-13T12:07:39;3.78;;;2.42;;
75616;SDS011;64200;55.426;37.758;2023-07-13T12:12:46;3.40;;;1.60;;
75616;SDS011;64200;55.426;37.758;2023-07-13T12:17:48;3.08;;;1.73;;
75616;SDS011;64200;55.426;37.758;2023-07-13T12:22:49;4.18;;;2.17;;
75616;SDS011;64200;55.426;37.758;2023-07-13T12:27:51;3.15;;;2.08;;
75616;SDS011;64200;55.426;37.758;2023-07-13T12:33:07;3.80;;;1.73;;
75616;SDS011;64200;55.426;37.758;2023-07-13T12:38:12;4.55;;;1.90;;
75616;SDS011;64200;55.426;37.758;2023-07-13T12:43:14;3.75;;;1.85;;
75616;SDS011;64200;55.426;37.758;2023-07-13T12:48:16;3.97;;;2.03;;
75616;SDS011;64200;55.426;37.758;2023-07-13T12:53:21;2.55;;;1.80;;
75616;SDS011;64200;55.426;37.758;2023-07-13T13:08:34;3.65;;;1.70;;
75616;SDS011;64200;55.426;37.758;2023-07-13T13:13:35;3.13;;;2.15;;
75616;SDS011;64200;55.426;37.758;2023-07-13T13:18:36;4.53;;;1.95;;
75616;SDS011;64200;55.426;37.758;2023-07-13T13:23:37;3.00;;;1.92;;
75616;SDS011;64200;55.426;37.758;2023-07-13T13:28:37;3.28;;;1.60;;
75616;SDS011;64200;55.426;37.758;2023-07-13T13:33:39;4.05;;;1.40;;
75616;SDS011;64200;55.426;37.758;2023-07-13T13:38:43;3.42;;;1.50;;
75616;SDS011;64200;55.426;37.758;2023-07-13T13:43:44;2.95;;;1.77;;
75616;SDS011;64200;55.426;37.758;2023-07-13T13:48:48;2.40;;;1.63;;
75616;SDS011;64200;55.426;37.758;2023-07-13T13:53:49;3.90;;;1.85;;
75616;SDS011;64200;55.426;37.758;2023-07-13T13:58:50;2.58;;;1.60;;
75616;SDS011;64200;55.426;37.758;2023-07-13T14:03:50;2.75;;;1.75;;
75616;SDS011;64200;55.426;37.758;2023-07-13T14:08:53;3.65;;;2.15;;
75616;SDS011;64200;55.426;37.758;2023-07-13T14:13:58;2.78;;;2.08;;
75616;SDS011;64200;55.426;37.758;2023-07-13T14:19:00;3.10;;;2.00;;
75616;SDS011;64200;55.426;37.758;2023-07-13T14:24:01;4.45;;;2.03;;
75616;SDS011;64200;55.426;37.758;2023-07-13T14:29:02;6.75;;;2.15;;
75616;SDS011;64200;55.426;37.758;2023-07-13T14:34:05;3.08;;;1.98;;
75616;SDS011;64200;55.426;37.758;2023-07-13T14:44:17;3.53;;;2.20;;
75616;SDS011;64200;55.426;37.758;2023-07-13T14:49:27;2.60;;;1.77;;
75616;SDS011;64200;55.426;37.758;2023-07-13T14:54:33;3.05;;;2.00;;
75616;SDS011;64200;55.426;37.758;2023-07-13T14:59:34;3.72;;;1.70;;
75616;SDS011;64200;55.426;37.758;2023-07-13T15:04:35;3.63;;;1.80;;
75616;SDS011;64200;55.426;37.758;2023-07-13T15:09:36;2.75;;;1.90;;
75616;SDS011;64200;55.426;37.758;2023-07-13T15:14:36;4.35;;;1.70;;
75616;SDS011;64200;55.426;37.758;2023-07-13T15:19:37;3.55;;;1.65;;
75616;SDS011;64200;55.426;37.758;2023-07-13T15:24:37;3.60;;;1.87;;
75616;SDS011;64200;55.426;37.758;2023-07-13T15:29:38;3.13;;;1.77;;
75616;SDS011;64200;55.426;37.758;2023-07-13T15:34:42;4.57;;;1.90;;
75616;SDS011;64200;55.426;37.758;2023-07-13T15:39:43;4.90;;;2.60;;
75616;SDS011;64200;55.426;37.758;2023-07-13T15:44:43;4.38;;;1.98;;
75616;SDS011;64200;55.426;37.758;2023-07-13T15:49:44;7.03;;;1.90;;
75616;SDS011;64200;55.426;37.758;2023-07-13T15:54:45;23.17;;;6.70;;
75616;SDS011;64200;55.426;37.758;2023-07-13T15:59:47;5.82;;;2.50;;
75616;SDS011;64200;55.426;37.758;2023-07-13T16:04:47;5.70;;;2.30;;
75616;SDS011;64200;55.426;37.758;2023-07-13T16:09:48;3.55;;;1.98;;
75616;SDS011;64200;55.426;37.758;2023-07-13T16:14:50;5.70;;;2.28;;
75616;SDS011;64200;55.426;37.758;2023-07-13T16:19:50;6.50;;;2.47;;
75616;SDS011;64200;55.426;37.758;2023-07-13T16:24:51;4.00;;;2.33;;
75616;SDS011;64200;55.426;37.758;2023-07-13T16:29:56;6.00;;;3.13;;
75616;SDS011;64200;55.426;37.758;2023-07-13T16:34:58;8.00;;;2.60;;
75616;SDS011;64200;55.426;37.758;2023-07-13T16:40:00;4.60;;;2.10;;
75616;SDS011;64200;55.426;37.758;2023-07-13T16:45:00;3.25;;;1.90;;
75616;SDS011;64200;55.426;37.758;2023-07-13T16:50:01;2.30;;;1.80;;
75616;SDS011;64200;55.426;37.758;2023-07-13T16:55:04;2.28;;;1.77;;
75616;SDS011;64200;55.426;37.758;2023-07-13T17:00:07;4.05;;;2.28;;
75616;SDS011;64200;55.426;37.758;2023-07-13T17:05:18;4.28;;;2.58;;
75616;SDS011;64200;55.426;37.758;2023-07-13T17:10:20;4.60;;;2.40;;
75616;SDS011;64200;55.426;37.758;2023-07-13T17:15:23;5.60;;;2.90;;
75616;SDS011;64200;55.426;37.758;2023-07-13T17:20:28;4.75;;;2.55;;
75616;SDS011;64200;55.426;37.758;2023-07-13T17:25:31;5.53;;;2.22;;
75616;SDS011;64200;55.426;37.758;2023-07-13T17:30:31;3.92;;;3.08;;
75616;SDS011;64200;55.426;37.758;2023-07-13T17:35:32;3.15;;;1.92;;
75616;SDS011;64200;55.426;37.758;2023-07-13T17:40:35;4.60;;;2.60;;
75616;SDS011;64200;55.426;37.758;2023-07-13T17:45:35;4.28;;;2.10;;
75616;SDS011;64200;55.426;37.758;2023-07-13T17:50:36;4.75;;;2.80;;
75616;SDS011;64200;55.426;37.758;2023-07-13T17:55:37;4.95;;;2.30;;
75616;SDS011;64200;55.426;37.758;2023-07-13T18:00:38;4.22;;;2.45;;
75616;SDS011;64200;55.426;37.758;2023-07-13T18:05:41;4.63;;;2.45;;
75616;SDS011;64200;55.426;37.758;2023-07-13T18:10:42;4.57;;;2.40;;
75616;SDS011;64200;55.426;37.758;2023-07-13T18:15:42;4.27;;;2.80;;
75616;SDS011;64200;55.426;37.758;2023-07-13T18:20:44;6.03;;;2.55;;
75616;SDS011;64200;55.426;37.758;2023-07-13T18:25:48;7.72;;;4.07;;
75616;SDS011;64200;55.426;37.758;2023-07-13T18:30:56;4.85;;;2.90;;
75616;SDS011;64200;55.426;37.758;2023-07-13T18:35:58;5.60;;;3.67;;
75616;SDS011;64200;55.426;37.758;2023-07-13T18:41:01;8.32;;;3.50;;
75616;SDS011;64200;55.426;37.758;2023-07-13T18:46:08;3.93;;;2.50;;
75616;SDS011;64200;55.426;37.758;2023-07-13T18:51:33;3.03;;;2.00;;
75616;SDS011;64200;55.426;37.758;2023-07-13T18:56:33;5.00;;;2.42;;
75616;SDS011;64200;55.426;37.758;2023-07-13T19:01:36;7.22;;;3.28;;
75616;SDS011;64200;55.426;37.758;2023-07-13T19:06:37;4.25;;;2.35;;
75616;SDS011;64200;55.426;37.758;2023-07-13T19:11:37;4.60;;;2.47;;
75616;SDS011;64200;55.426;37.758;2023-07-13T19:16:38;7.23;;;3.43;;
75616;SDS011;64200;55.426;37.758;2023-07-13T19:21:38;4.95;;;2.83;;
75616;SDS011;64200;55.426;37.758;2023-07-13T19:26:39;6.05;;;3.17;;
75616;SDS011;64200;55.426;37.758;2023-07-13T19:31:40;3.78;;;2.70;;
75616;SDS011;64200;55.426;37.758;2023-07-13T19:36:40;6.20;;;2.97;;
75616;SDS011;64200;55.426;37.758;2023-07-13T19:41:41;4.97;;;3.03;;
75616;SDS011;64200;55.426;37.758;2023-07-13T19:46:41;5.93;;;2.63;;
75616;SDS011;64200;55.426;37.758;2023-07-13T19:51:43;4.40;;;3.28;;
75616;SDS011;64200;55.426;37.758;2023-07-13T19:56:46;8.82;;;3.33;;
75616;SDS011;64200;55.426;37.758;2023-07-13T20:01:46;7.32;;;4.10;;
75616;SDS011;64200;55.426;37.758;2023-07-13T20:06:47;6.75;;;3.63;;
75616;SDS011;64200;55.426;37.758;2023-07-13T20:11:48;9.90;;;4.45;;
75616;SDS011;64200;55.426;37.758;2023-07-13T20:16:49;10.68;;;4.43;;
75616;SDS011;64200;55.426;37.758;2023-07-13T20:21:56;6.82;;;3.97;;
75616;SDS011;64200;55.426;37.758;2023-07-13T20:26:56;8.13;;;4.13;;
75616;SDS011;64200;55.426;37.758;2023-07-13T20:31:57;10.32;;;3.58;;
75616;SDS011;64200;55.426;37.758;2023-07-13T20:36:59;7.80;;;3.72;;
75616;SDS011;64200;55.426;37.758;2023-07-13T20:41:59;4.35;;;2.97;;
75616;SDS011;64200;55.426;37.758;2023-07-13T20:47:00;6.57;;;3.83;;
75616;SDS011;64200;55.426;37.758;2023-07-13T20:52:03;6.82;;;4.03;;
75616;SDS011;64200;55.426;37.758;2023-07-13T20:57:10;5.80;;;3.70;;
75616;SDS011;64200;55.426;37.758;2023-07-13T21:07:22;5.72;;;3.25;;
75616;SDS011;64200;55.426;37.758;2023-07-13T21:12:23;6.15;;;3.55;;
75616;SDS011;64200;55.426;37.758;2023-07-13T21:17:23;4.80;;;2.87;;
75616;SDS011;64200;55.426;37.758;2023-07-13T21:22:24;7.20;;;3.90;;
75616;SDS011;64200;55.426;37.758;2023-07-13T21:27:24;4.40;;;3.13;;
75616;SDS011;64200;55.426;37.758;2023-07-13T21:32:25;7.50;;;3.03;;
75616;SDS011;64200;55.426;37.758;2023-07-13T21:37:26;7.03;;;3.83;;
75616;SDS011;64200;55.426;37.758;2023-07-13T21:42:26;5.18;;;2.88;;
75616;SDS011;64200;55.426;37.758;2023-07-13T21:47:27;8.63;;;3.57;;
75616;SDS011;64200;55.426;37.758;2023-07-13T21:52:27;7.37;;;3.73;;
75616;SDS011;64200;55.426;37.758;2023-07-13T21:57:28;5.22;;;3.15;;
75616;SDS011;64200;55.426;37.758;2023-07-13T22:02:28;6.53;;;2.92;;
75616;SDS011;64200;55.426;37.758;2023-07-13T22:07:29;4.57;;;3.20;;
75616;SDS011;64200;55.426;37.758;2023-07-13T22:12:29;4.40;;;2.83;;
75616;SDS011;64200;55.426;37.758;2023-07-13T22:17:31;4.72;;;2.80;;
75616;SDS011;64200;55.426;37.758;2023-07-13T22:22:31;7.20;;;3.17;;
75616;SDS011;64200;55.426;37.758;2023-07-13T22:27:32;4.90;;;3.00;;
75616;SDS011;64200;55.426;37.758;2023-07-13T22:32:33;5.05;;;3.03;;
75616;SDS011;64200;55.426;37.758;2023-07-13T22:37:34;4.50;;;2.92;;
75616;SDS011;64200;55.426;37.758;2023-07-13T22:42:36;5.45;;;3.60;;
75616;SDS011;64200;55.426;37.758;2023-07-13T22:47:39;4.57;;;3.00;;
75616;SDS011;64200;55.426;37.758;2023-07-13T22:52:40;4.30;;;2.85;;
75616;SDS011;64200;55.426;37.758;2023-07-13T22:57:43;4.63;;;3.57;;
75616;SDS011;64200;55.426;37.758;2023-07-13T23:02:49;7.78;;;3.10;;
75616;SDS011;64200;55.426;37.758;2023-07-13T23:07:50;6.68;;;3.03;;
75616;SDS011;64200;55.426;37.758;2023-07-13T23:12:51;8.15;;;3.00;;
75616;SDS011;64200;55.426;37.758;2023-07-13T23:17:51;9.35;;;3.22;;
75616;SDS011;64200;55.426;37.758;2023-07-13T23:22:52;7.05;;;3.92;;
75616;SDS011;64200;55.426;37.758;2023-07-13T23:27:53;4.55;;;3.10;;
75616;SDS011;64200;55.426;37.758;2023-07-13T23:38:25;5.32;;;2.92;;
75616;SDS011;64200;55.426;37.758;2023-07-13T23:43:26;6.10;;;3.05;;
75616;SDS011;64200;55.426;37.758;2023-07-13T23:48:27;5.07;;;4.00;;
75616;SDS011;64200;55.426;37.758;2023-07-13T23:53:27;4.93;;;3.20;;
75616;SDS011;64200;55.426;37.758;2023-07-13T23:58:28;5.57;;;3.55;;
